Time;durP1;ratioP1;P1;durP2;ratioP2;P2;SDS_P1;SDS_P2;PMS_P1;PMS_P2;Temp;Humidity;BMP_temperature;BMP_pressure;BME280_temperature;BME280_humidity;BME280_pressure;Samples;Min_cycle;Max_cycle;Signal;HPM_P1;HPM_P2
2022/06/13 00:01:27;;;;;;;;;15.00;14.00;;;;;22.82;50.14;98490.81;4986606;27;109307;-58
2022/06/13 00:03:54;;;;;;;;;14.33;14.33;;;;;22.81;50.11;98496.59;4975300;28;104280;-58
2022/06/13 00:06:21;;;;;;;;;13.67;13.00;;;;;22.79;50.19;98496.03;4969110;28;102371;-58
2022/06/13 00:08:49;;;;;;;;;13.33;12.67;;;;;22.79;50.06;98490.53;4983587;27;102246;-58
2022/06/13 00:11:17;;;;;;;;;12.00;11.67;;;;;22.80;49.51;98490.25;4964401;27;104079;-58
2022/06/13 00:13:45;;;;;;;;;12.00;11.33;;;;;22.81;49.63;98480.06;4989270;27;102169;-58
2022/06/13 00:16:14;;;;;;;;;12.00;11.33;;;;;22.80;49.33;98481.16;4999817;27;102593;-58
2022/06/13 00:18:47;;;;;;;;;13.33;13.33;;;;;22.80;49.61;98479.22;4988398;28;102662;-58
2022/06/13 00:21:19;;;;;;;;;13.00;13.00;;;;;22.79;49.76;98476.75;4994587;27;104332;-58
2022/06/13 00:23:47;;;;;;;;;11.00;11.00;;;;;22.77;49.56;98468.78;4975264;28;102376;-58
2022/06/13 00:26:14;;;;;;;;;12.67;11.00;;;;;22.76;49.80;98472.63;4973117;28;102324;-58
2022/06/13 00:28:41;;;;;;;;;12.33;12.00;;;;;22.74;49.90;98463.81;4990562;27;102776;-58
2022/06/13 00:31:09;;;;;;;;;13.33;12.67;;;;;22.73;49.92;98459.44;4981448;27;104129;-58
2022/06/13 00:33:36;;;;;;;;;14.67;14.00;;;;;22.74;49.55;98461.06;4984621;28;102522;-58
2022/06/13 00:36:03;;;;;;;;;12.00;11.00;;;;;22.78;49.23;98450.31;4990263;27;104346;-58
2022/06/13 00:38:31;;;;;;;;;12.00;12.00;;;;;22.78;48.71;98440.09;4990056;28;102306;-58
2022/06/13 00:40:58;;;;;;;;;11.67;11.67;;;;;22.80;48.65;98440.63;5005566;27;103877;-58
2022/06/13 00:43:25;;;;;;;;;14.67;14.00;;;;;22.79;48.36;98432.63;4989028;27;102266;-58
2022/06/13 00:45:53;;;;;;;;;12.00;11.00;;;;;22.78;48.55;98439.28;4991461;28;102352;-58
2022/06/13 00:48:21;;;;;;;;;12.67;12.00;;;;;22.77;48.43;98441.22;4979509;28;102542;-58
2022/06/13 00:50:53;;;;;;;;;14.00;13.67;;;;;22.75;48.23;98435.13;5008342;27;104079;-58
2022/06/13 00:53:26;;;;;;;;;14.33;14.00;;;;;22.75;48.22;98431.56;4988384;27;102300;-58
2022/06/13 00:56:04;;;;;;;;;11.00;10.00;;;;;22.76;48.11;98442.31;4960315;28;102561;-58
2022/06/13 00:58:35;;;;;;;;;13.00;13.00;;;;;22.74;48.18;98433.47;4962514;28;102496;-58
2022/06/13 01:01:03;;;;;;;;;14.00;12.67;;;;;22.72;48.38;98432.97;4986480;28;104143;-58
2022/06/13 01:03:30;;;;;;;;;13.00;12.33;;;;;22.73;48.21;98411.75;4976585;27;102223;-58
2022/06/13 01:05:59;;;;;;;;;13.00;12.00;;;;;22.71;47.94;98417.53;4958492;28;102274;-58
2022/06/13 01:08:27;;;;;;;;;12.00;11.67;;;;;22.74;47.83;98414.19;4942705;27;103285;-58
2022/06/13 01:11:16;;;;;;;;;14.00;13.00;;;;;22.74;47.81;98402.38;4941381;27;107812;-58
2022/06/13 01:14:15;;;;;;;;;11.67;11.00;;;;;22.73;47.76;98404.28;4951939;28;102241;-58
2022/06/13 01:17:11;;;;;;;;;12.67;12.33;;;;;22.71;47.59;98406.50;4979151;27;102255;-58
2022/06/13 01:19:57;;;;;;;;;14.00;13.00;;;;;22.72;47.88;98399.88;4989047;28;102817;-58
2022/06/13 01:23:02;;;;;;;;;14.67;14.00;;;;;22.71;47.74;98397.41;4970474;27;104897;-58
2022/06/13 01:25:42;;;;;;;;;13.00;13.00;;;;;22.68;47.71;98398.78;4975315;27;103094;-58
2022/06/13 01:28:27;;;;;;;;;14.33;13.00;;;;;22.68;47.50;98387.75;4966179;28;102187;-58
2022/06/13 01:31:19;;;;;;;;;12.33;11.33;;;;;22.67;47.31;98397.13;4988292;27;102216;-58
2022/06/13 01:33:59;;;;;;;;;12.67;12.67;;;;;22.66;47.36;98393.53;4996948;27;108698;-58
2022/06/13 01:36:34;;;;;;;;;12.00;11.33;;;;;22.65;47.46;98380.84;4992331;27;102505;-58
2022/06/13 01:39:16;;;;;;;;;11.00;11.00;;;;;22.65;47.24;98383.63;4972090;28;103518;-58
2022/06/13 01:41:53;;;;;;;;;11.00;11.00;;;;;22.64;47.23;98383.91;4967094;28;102342;-58
2022/06/13 01:44:45;;;;;;;;;12.67;12.33;;;;;22.63;47.09;98382.25;4982218;28;104267;-58
2022/06/13 01:47:36;;;;;;;;;13.00;12.00;;;;;22.63;47.22;98379.50;4980362;28;102220;-58
2022/06/13 01:50:19;;;;;;;;;12.33;12.33;;;;;22.61;46.90;98371.50;4964241;28;102405;-58
2022/06/13 01:52:49;;;;;;;;;12.00;11.33;;;;;22.59;46.87;98370.16;4992117;27;102296;-58
2022/06/13 01:55:31;;;;;;;;;11.00;10.67;;;;;22.58;47.22;98383.13;4978956;27;105809;-58
2022/06/13 01:58:22;;;;;;;;;13.00;12.00;;;;;22.57;46.94;98369.59;4982158;28;103160;-58
2022/06/13 02:00:59;;;;;;;;;12.67;12.67;;;;;22.57;47.00;98369.59;4993598;27;102475;-58
2022/06/13 02:03:29;;;;;;;;;9.67;8.67;;;;;22.56;47.03;98367.97;4985995;27;102180;-58
2022/06/13 02:06:03;;;;;;;;;13.00;10.67;;;;;22.56;46.74;98362.47;4953426;28;104242;-58
2022/06/13 02:09:02;;;;;;;;;12.33;12.00;;;;;22.54;46.86;98360.00;4987086;28;102384;-58
2022/06/13 02:11:34;;;;;;;;;10.00;10.00;;;;;22.52;46.85;98353.09;4981094;28;102153;-58
2022/06/13 02:14:18;;;;;;;;;12.00;11.00;;;;;22.53;46.84;98357.50;4994220;28;102319;-58
2022/06/13 02:17:11;;;;;;;;;12.33;11.67;;;;;22.51;46.64;98355.06;4968846;27;108083;-58
2022/06/13 02:20:01;;;;;;;;;12.33;11.33;;;;;22.50;46.44;98350.66;4981020;28;102487;-58
2022/06/13 02:22:33;;;;;;;;;13.00;12.33;;;;;22.49;46.52;98345.41;4986806;27;102296;-59
2022/06/13 02:25:15;;;;;;;;;11.33;11.00;;;;;22.48;46.51;98349.25;4984495;28;102358;-58
2022/06/13 02:27:42;;;;;;;;;11.33;11.33;;;;;22.47;46.32;98344.88;4985152;28;108997;-58
2022/06/13 02:30:13;;;;;;;;;12.00;10.33;;;;;22.46;46.50;98348.75;4974314;28;102516;-58
2022/06/13 02:32:49;;;;;;;;;10.00;10.00;;;;;22.44;46.24;98351.78;4992387;28;103997;-58
2022/06/13 02:35:32;;;;;;;;;12.67;12.33;;;;;22.43;46.49;98352.88;4989902;28;102810;-58
2022/06/13 02:38:09;;;;;;;;;12.67;12.00;;;;;22.43;46.45;98354.81;4984187;28;104126;-58
2022/06/13 02:40:39;;;;;;;;;12.33;12.00;;;;;22.44;46.19;98350.94;4977904;28;104096;-59
2022/06/13 02:43:11;;;;;;;;;11.00;11.00;;;;;22.42;46.26;98351.25;4986625;27;102201;-59
2022/06/13 02:45:42;;;;;;;;;12.00;12.00;;;;;22.41;46.33;98349.59;4988521;27;103012;-58
2022/06/13 02:48:14;;;;;;;;;11.67;11.67;;;;;22.42;46.05;98339.41;4991528;28;104049;-58
2022/06/13 02:50:56;;;;;;;;;12.33;11.67;;;;;22.39;45.93;98343.53;4970677;27;102440;-58
2022/06/13 02:53:24;;;;;;;;;13.33;12.67;;;;;22.38;45.98;98338.31;4979155;28;103198;-58
2022/06/13 02:56:26;;;;;;;;;12.00;12.00;;;;;22.37;46.11;98333.91;4990660;28;102422;-58
2022/06/13 02:59:08;;;;;;;;;10.33;10.33;;;;;22.37;46.21;98331.97;4995494;27;109006;-58
2022/06/13 03:01:41;;;;;;;;;12.00;12.00;;;;;22.36;45.98;98340.53;5001457;27;105755;-58
2022/06/13 03:04:14;;;;;;;;;12.00;11.33;;;;;22.34;45.71;98337.22;4962847;28;102224;-58
2022/06/13 03:06:53;;;;;;;;;13.67;12.33;;;;;22.33;45.95;98349.38;4986899;28;102710;-58
2022/06/13 03:09:32;;;;;;;;;13.00;12.00;;;;;22.32;45.80;98350.47;4993891;27;105630;-58
2022/06/13 03:12:04;;;;;;;;;11.00;11.00;;;;;22.32;45.77;98353.22;4979900;27;102492;-58
2022/06/13 03:14:38;;;;;;;;;12.67;12.00;;;;;22.30;45.49;98347.16;4968284;28;104638;-58
2022/06/13 03:17:20;;;;;;;;;14.33;14.33;;;;;22.31;45.76;98354.31;4983869;28;102400;-58
2022/06/13 03:20:06;;;;;;;;;11.33;11.33;;;;;22.29;45.43;98340.03;4981674;28;109110;-58
2022/06/13 03:22:39;;;;;;;;;5.00;4.00;;;;;22.28;45.43;98343.88;4996236;27;102367;-58
2022/06/13 03:25:07;;;;;;;;;12.67;11.67;;;;;22.27;45.68;98333.97;4992254;27;102412;-58
2022/06/13 03:27:34;;;;;;;;;11.00;11.00;;;;;22.24;45.62;98338.91;4996488;27;102609;-58
2022/06/13 03:30:10;;;;;;;;;14.00;11.00;;;;;22.21;45.62;98333.97;4999847;27;104087;-58
2022/06/13 03:35:46;;;;;;;;;15.00;13.00;;;;;22.21;45.55;98339.50;5006697;27;103283;-58
2022/06/13 03:38:20;;;;;;;;;12.00;11.00;;;;;22.18;45.47;98334.56;4977337;27;102489;-58
2022/06/13 03:40:50;;;;;;;;;13.00;11.33;;;;;22.17;45.38;98349.44;4996631;27;104181;-58
2022/06/13 03:43:30;;;;;;;;;15.67;14.33;;;;;22.17;45.48;98343.91;4996208;27;102389;-58
2022/06/13 03:46:07;;;;;;;;;10.00;10.00;;;;;22.17;45.38;98349.44;4982887;27;102066;-58
2022/06/13 03:49:12;;;;;;;;;12.33;12.00;;;;;22.16;45.60;98336.75;4984917;28;102433;-58
2022/06/13 03:51:45;;;;;;;;;15.33;14.00;;;;;22.17;45.38;98332.06;4971551;28;109009;-58
2022/06/13 03:54:15;;;;;;;;;11.33;10.00;;;;;22.15;45.42;98324.09;4991074;28;102133;-58
2022/06/13 03:57:16;;;;;;;;;13.00;11.67;;;;;22.14;45.18;98322.47;4993197;28;102480;-59
2022/06/13 03:59:47;;;;;;;;;14.67;13.67;;;;;22.13;45.21;98318.06;4987919;27;102341;-58
2022/06/13 04:02:16;;;;;;;;;12.00;12.00;;;;;22.12;45.40;98310.88;4999397;27;104096;-58
2022/06/13 04:04:48;;;;;;;;;12.00;11.67;;;;;22.11;45.43;98320.25;4993665;28;102604;-58
2022/06/13 04:07:17;;;;;;;;;14.00;13.00;;;;;22.10;45.27;98321.38;4991721;28;102257;-58
2022/06/13 04:09:48;;;;;;;;;12.67;11.67;;;;;22.09;45.13;98322.47;4982266;28;102541;-58
2022/06/13 04:12:52;;;;;;;;;13.67;13.67;;;;;22.08;45.05;98320.00;4990650;27;104098;-58
2022/06/13 04:15:29;;;;;;;;;14.33;13.33;;;;;22.04;45.04;98317.00;4986904;28;102263;-58
2022/06/13 04:17:59;;;;;;;;;14.67;14.00;;;;;22.05;45.43;98318.66;4997122;27;102469;-58
2022/06/13 04:20:51;;;;;;;;;14.67;12.33;;;;;22.05;45.56;98315.88;5002986;27;102339;-58
2022/06/13 04:23:38;;;;;;;;;14.33;13.67;;;;;22.02;45.86;98316.44;4991649;27;108640;-58
2022/06/13 04:26:19;;;;;;;;;12.67;12.00;;;;;22.03;46.05;98320.00;4989565;28;102164;-58
2022/06/13 04:29:21;;;;;;;;;13.67;12.67;;;;;22.02;46.08;98316.44;4997896;27;102253;-58
2022/06/13 04:31:49;;;;;;;;;12.67;12.33;;;;;22.00;46.14;98304.06;4971690;27;103525;-58
2022/06/13 04:34:19;;;;;;;;;13.67;12.67;;;;;22.00;46.33;98309.56;4990920;27;104094;-58
2022/06/13 04:36:46;;;;;;;;;14.00;13.00;;;;;21.98;45.74;98304.34;4977776;28;103564;-58
2022/06/13 04:39:14;;;;;;;;;15.00;13.67;;;;;21.97;45.99;98310.16;5010188;27;102237;-58
2022/06/13 04:41:43;;;;;;;;;16.00;12.00;;;;;21.96;46.40;98309.31;4974417;27;102456;-58
2022/06/13 04:44:14;;;;;;;;;15.33;13.00;;;;;21.95;46.03;98309.59;4992897;28;103987;-58
2022/06/13 04:46:41;;;;;;;;;16.67;14.67;;;;;21.94;46.21;98311.50;4988738;28;102674;-58
2022/06/13 04:49:23;;;;;;;;;14.00;13.00;;;;;21.94;46.35;98302.44;4994093;27;102260;-58
2022/06/13 04:51:50;;;;;;;;;13.67;13.67;;;;;21.94;45.79;98313.44;4987036;28;102731;-58
2022/06/13 04:54:30;;;;;;;;;12.33;12.00;;;;;21.93;45.94;98315.38;4984707;28;104159;-58
2022/06/13 04:57:00;;;;;;;;;13.67;12.67;;;;;21.94;46.27;98310.69;4988765;27;102365;-58
2022/06/13 04:59:28;;;;;;;;;13.67;13.67;;;;;21.93;46.38;98307.09;4986055;28;102530;-58
2022/06/13 05:01:56;;;;;;;;;14.67;13.67;;;;;21.93;46.44;98309.88;4977069;27;102249;-58
2022/06/13 05:04:29;;;;;;;;;13.67;13.00;;;;;21.93;46.25;98307.09;4981789;28;105019;-58
2022/06/13 05:06:59;;;;;;;;;11.33;11.33;;;;;21.90;46.44;98304.91;4981155;27;102153;-58
2022/06/13 05:09:31;;;;;;;;;12.67;12.67;;;;;21.91;45.79;98301.03;4997758;27;102294;-58
2022/06/13 05:12:26;;;;;;;;;12.00;12.00;;;;;21.91;46.31;98300.22;5002255;27;102274;-58
2022/06/13 05:15:09;;;;;;;;;11.67;10.67;;;;;21.91;46.80;98295.53;5002088;27;108626;-58
2022/06/13 05:18:05;;;;;;;;;15.33;13.00;;;;;21.90;46.60;98299.38;4998540;27;102143;-58
2022/06/13 05:20:53;;;;;;;;;12.33;12.33;;;;;21.90;46.70;98291.13;5001985;27;102042;-58
2022/06/13 05:23:57;;;;;;;;;13.33;13.33;;;;;21.88;46.52;98282.34;4994683;27;102636;-58
2022/06/13 05:26:29;;;;;;;;;13.00;11.33;;;;;21.91;46.71;98284.53;4986174;27;109955;-58
2022/06/13 05:29:00;;;;;;;;;13.00;13.00;;;;;21.90;46.72;98293.88;4990283;28;102329;-58
2022/06/13 05:31:28;;;;;;;;;12.33;12.33;;;;;21.90;46.67;98295.81;4995352;28;102360;-58
2022/06/13 05:33:55;;;;;;;;;15.67;15.00;;;;;21.91;46.93;98306.56;4987860;28;102437;-58
2022/06/13 05:36:23;;;;;;;;;15.00;13.00;;;;;21.89;47.51;98297.75;4991461;27;104369;-58
2022/06/13 05:38:50;;;;;;;;;14.33;13.33;;;;;21.91;46.88;98305.72;4991014;28;102437;-58
2022/06/13 05:41:18;;;;;;;;;13.00;12.00;;;;;21.90;47.00;98302.16;4995715;27;102657;-58
2022/06/13 05:43:45;;;;;;;;;13.00;12.00;;;;;21.90;47.47;98306.81;4997303;27;102330;-58
2022/06/13 05:46:22;;;;;;;;;15.67;15.00;;;;;21.90;47.14;98293.88;4995546;27;104064;-58
2022/06/13 05:48:50;;;;;;;;;13.33;13.00;;;;;21.94;47.76;98302.44;4975331;28;102205;-58
2022/06/13 05:51:17;;;;;;;;;11.33;11.33;;;;;21.92;47.40;98308.22;4982455;28;102298;-58
2022/06/13 05:53:44;;;;;;;;;12.67;12.00;;;;;21.91;47.71;98295.53;4978347;27;102769;-58
2022/06/13 05:56:11;;;;;;;;;12.00;11.50;;;;;21.91;47.78;98305.72;4997370;27;104079;-58
2022/06/13 05:58:38;;;;;;;;;12.33;12.33;;;;;21.91;47.47;98317.56;4996638;28;102487;-58
2022/06/13 06:01:06;;;;;;;;;15.00;13.67;;;;;21.94;47.87;98310.69;4989508;28;104082;-58
2022/06/13 06:03:33;;;;;;;;;11.00;11.00;;;;;21.95;47.71;98335.19;4990741;27;102510;-58
2022/06/13 06:06:00;;;;;;;;;12.00;12.00;;;;;21.99;48.05;98376.75;4986384;28;104116;-58
2022/06/13 06:08:33;;;;;;;;;11.33;11.00;;;;;22.00;47.64;98370.16;4986052;28;102135;-58
2022/06/13 06:11:00;;;;;;;;;12.67;11.00;;;;;22.02;48.12;98370.72;4988429;27;102593;-58
2022/06/13 06:13:28;;;;;;;;;11.33;11.00;;;;;22.04;48.25;98377.56;4988089;27;102485;-58
2022/06/13 06:15:56;;;;;;;;;9.67;9.33;;;;;22.05;48.04;98370.97;4988484;27;110736;-58
2022/06/13 06:18:23;;;;;;;;;12.00;11.00;;;;;22.05;48.55;98370.97;4980966;27;102477;-58
2022/06/13 06:20:50;;;;;;;;;11.00;11.00;;;;;22.05;48.36;98373.72;4989680;27;102482;-58
2022/06/13 06:23:18;;;;;;;;;11.00;9.33;;;;;22.08;48.32;98361.31;4989678;27;102175;-58
2022/06/13 06:25:47;;;;;;;;;11.33;11.00;;;;;22.07;49.00;98365.16;4992266;28;103856;-58
2022/06/13 06:28:19;;;;;;;;;9.67;9.00;;;;;22.07;48.84;98368.75;5002002;28;102491;-58
2022/06/13 06:30:47;;;;;;;;;12.33;12.00;;;;;22.07;48.75;98363.22;4990401;28;102536;-58
2022/06/13 06:33:14;;;;;;;;;9.00;9.00;;;;;22.07;48.35;98365.16;4991420;28;102161;-58
2022/06/13 06:35:41;;;;;;;;;10.00;10.00;;;;;22.06;48.84;98358.84;5001178;27;104142;-58
2022/06/13 06:38:09;;;;;;;;;14.00;12.00;;;;;22.06;49.21;98341.50;5013210;27;102116;-58
2022/06/13 06:40:37;;;;;;;;;11.67;11.00;;;;;22.06;49.03;98342.31;4994739;27;102518;-58
2022/06/13 06:43:05;;;;;;;;;12.00;12.00;;;;;22.08;49.20;98333.75;5000496;27;102343;-58
2022/06/13 06:45:32;;;;;;;;;12.00;11.00;;;;;22.08;49.32;98334.59;4992918;27;104207;-58
2022/06/13 06:47:59;;;;;;;;;12.00;11.00;;;;;22.09;49.06;98341.75;5003185;27;102386;-58
2022/06/13 06:50:29;;;;;;;;;11.67;11.67;;;;;22.11;49.59;98352.50;4997833;28;102318;-58
2022/06/13 06:52:57;;;;;;;;;11.33;10.00;;;;;22.12;49.71;98343.09;4993029;28;102126;-58
2022/06/13 07:00:59;;;;;;;;;11.67;11.67;;;;;22.14;49.64;98321.63;5000984;27;102220;-58
2022/06/13 07:03:27;;;;;;;;;11.00;11.00;;;;;22.15;49.65;98318.56;5003170;27;102305;-58
2022/06/13 07:05:54;;;;;;;;;12.67;11.00;;;;;22.15;49.45;98309.53;4995889;27;104193;-58
2022/06/13 07:08:21;;;;;;;;;12.00;11.67;;;;;22.16;49.53;98314.72;4993069;27;110432;-58
2022/06/13 07:10:49;;;;;;;;;14.33;13.00;;;;;22.17;49.49;98321.88;4997386;27;102521;-58
2022/06/13 07:13:18;;;;;;;;;11.00;11.00;;;;;22.17;49.62;98315.56;5000376;27;102621;-58
2022/06/13 07:15:48;;;;;;;;;11.00;10.33;;;;;22.19;49.60;98303.16;4992244;28;104425;-58
2022/06/13 07:18:17;;;;;;;;;11.00;11.00;;;;;22.18;49.53;98301.50;4984435;28;102494;-58
2022/06/13 07:20:44;;;;;;;;;13.00;12.33;;;;;22.20;49.69;98303.94;4998418;27;102605;-58
2022/06/13 07:23:12;;;;;;;;;11.33;11.33;;;;;22.21;50.13;98308.38;4993555;27;106040;-58
2022/06/13 07:25:39;;;;;;;;;14.00;11.33;;;;;22.22;49.99;98301.75;5005288;27;109297;-58
2022/06/13 07:28:06;;;;;;;;;12.33;11.00;;;;;22.23;49.68;98300.66;5004175;27;102209;-58
2022/06/13 07:30:33;;;;;;;;;12.00;12.00;;;;;22.24;50.04;98305.06;5004436;27;102354;-58
2022/06/13 07:33:00;;;;;;;;;12.67;11.67;;;;;22.22;49.90;98305.34;4993253;28;102459;-58
2022/06/13 07:35:27;;;;;;;;;11.33;10.00;;;;;22.24;49.80;98316.88;4995477;28;104055;-58
2022/06/13 07:40:40;;;;;;;;;11.00;10.00;;;;;22.22;50.50;98332.88;4983137;27;102271;-58
2022/06/13 07:43:09;;;;;;;;;11.33;10.33;;;;;22.22;50.70;98323.78;4996986;27;102632;-58
2022/06/13 07:45:39;;;;;;;;;10.67;10.67;;;;;22.23;50.29;98331.78;4992545;28;104239;-58
2022/06/13 07:48:17;;;;;;;;;13.00;12.33;;;;;22.24;50.48;98336.16;4996993;27;102437;-58
2022/06/13 07:50:44;;;;;;;;;13.33;13.33;;;;;22.24;50.43;98344.41;4978422;28;102476;-58
2022/06/13 07:53:12;;;;;;;;;12.67;12.33;;;;;22.24;50.37;98360.94;4999223;28;102186;-58
2022/06/13 07:55:40;;;;;;;;;13.00;12.67;;;;;22.24;50.25;98363.69;4999037;27;108731;-58
2022/06/13 07:58:20;;;;;;;;;11.00;11.00;;;;;22.24;50.66;98363.69;4987257;27;102295;-58
2022/06/13 08:00:49;;;;;;;;;11.33;10.00;;;;;22.23;50.68;98362.09;4969051;28;102583;-58
2022/06/13 08:03:23;;;;;;;;;9.67;9.67;;;;;22.25;50.51;98375.56;4987444;28;102214;-58
2022/06/13 08:05:51;;;;;;;;;12.67;11.33;;;;;22.23;50.76;98364.84;4986632;27;104110;-58
2022/06/13 08:08:18;;;;;;;;;14.33;11.33;;;;;22.24;50.68;98362.91;4994180;27;102091;-58
2022/06/13 08:10:46;;;;;;;;;10.50;10.50;;;;;22.22;50.79;98354.91;5006459;28;102189;-58
2022/06/13 08:13:14;;;;;;;;;11.00;10.67;;;;;22.24;51.00;98371.16;4993091;27;102475;-58
2022/06/13 08:15:42;;;;;;;;;10.67;10.00;;;;;22.23;50.86;98356.56;4994192;27;104040;-58
2022/06/13 08:18:10;;;;;;;;;10.33;10.33;;;;;22.24;50.81;98362.91;4978547;27;105096;-58
2022/06/13 08:20:37;;;;;;;;;11.67;11.33;;;;;22.25;50.93;98364.53;4992834;27;102435;-58
2022/06/13 08:23:06;;;;;;;;;10.33;10.33;;;;;22.25;51.01;98359.84;4995292;27;102442;-58
2022/06/13 08:25:34;;;;;;;;;10.33;10.00;;;;;22.25;50.93;98362.59;4991268;28;103744;-58
2022/06/13 08:28:01;;;;;;;;;11.67;10.67;;;;;22.27;51.05;98350.50;4993617;27;102332;-58
2022/06/13 08:30:36;;;;;;;;;11.00;9.67;;;;;22.25;50.76;98354.34;5000923;27;102308;-58
2022/06/13 08:33:03;;;;;;;;;11.67;11.67;;;;;22.24;50.64;98360.94;4990151;28;102505;-58
2022/06/13 08:35:30;;;;;;;;;12.33;12.00;;;;;22.28;50.85;98363.16;4995217;28;104221;-58
2022/06/13 08:38:04;;;;;;;;;10.00;10.00;;;;;22.28;50.94;98368.66;4994190;27;102512;-58
2022/06/13 08:40:50;;;;;;;;;10.00;9.33;;;;;22.29;50.74;98359.31;4998495;27;102293;-58
2022/06/13 08:43:31;;;;;;;;;12.33;11.67;;;;;22.28;50.71;98352.13;5003480;27;102255;-58
2022/06/13 08:46:27;;;;;;;;;12.67;10.67;;;;;22.28;50.95;98349.38;4984940;27;108881;-58
2022/06/13 08:49:00;;;;;;;;;10.33;9.67;;;;;22.31;51.06;98359.84;4965741;28;102352;-58
2022/06/13 08:51:36;;;;;;;;;9.67;9.67;;;;;22.31;51.08;98362.59;4971223;27;103055;-58
2022/06/13 08:54:03;;;;;;;;;9.33;9.33;;;;;22.31;50.78;98359.84;4992551;28;103313;-58
2022/06/13 08:56:33;;;;;;;;;10.00;9.00;;;;;22.31;50.63;98343.31;4984652;28;104126;-58
2022/06/13 08:59:25;;;;;;;;;10.00;10.00;;;;;22.33;50.69;98346.63;4984741;28;102496;-58
2022/06/13 09:02:01;;;;;;;;;10.00;10.00;;;;;22.33;50.92;98357.63;4999856;28;102198;-58
2022/06/13 09:04:30;;;;;;;;;9.00;9.00;;;;;22.34;50.80;98364.75;4977525;28;102573;-58
2022/06/13 09:07:28;;;;;;;;;10.33;10.00;;;;;22.33;50.95;98352.13;4975005;27;104343;-58
2022/06/13 09:10:03;;;;;;;;;10.67;9.67;;;;;22.33;50.87;98360.38;4984006;28;102074;-58
2022/06/13 09:13:17;;;;;;;;;8.00;8.00;;;;;22.33;50.92;98349.38;4998291;27;102068;-58
2022/06/13 09:16:04;;;;;;;;;9.00;8.67;;;;;22.33;51.02;98360.38;4993914;27;102447;-58
2022/06/13 09:18:51;;;;;;;;;9.33;9.00;;;;;22.32;51.24;98351.28;4996535;28;108778;-58
2022/06/13 09:21:33;;;;;;;;;9.33;9.33;;;;;22.33;51.12;98335.59;4984723;28;102113;-58
2022/06/13 09:24:14;;;;;;;;;10.00;9.00;;;;;22.34;50.98;98348.22;4984512;28;102132;-58
2022/06/13 09:26:48;;;;;;;;;8.33;8.00;;;;;22.34;50.97;98334.47;4978557;28;102639;-58
2022/06/13 09:29:32;;;;;;;;;9.00;9.00;;;;;22.34;50.91;98343.56;4986798;27;104095;-58
2022/06/13 09:32:19;;;;;;;;;9.67;8.67;;;;;22.36;51.30;98354.31;4982220;28;103363;-58
2022/06/13 09:34:54;;;;;;;;;9.33;8.33;;;;;22.34;51.07;98349.06;4993740;28;111051;-58
2022/06/13 09:37:33;;;;;;;;;9.00;9.00;;;;;22.34;51.05;98351.00;4990370;27;102703;-58
2022/06/13 09:40:00;;;;;;;;;7.00;7.00;;;;;22.33;51.20;98347.44;4989908;27;104029;-58
2022/06/13 09:42:37;;;;;;;;;8.67;8.00;;;;;22.33;51.50;98350.19;4996235;27;102095;-58
2022/06/13 09:45:32;;;;;;;;;9.33;8.33;;;;;22.33;51.65;98335.59;4990741;28;102176;-58
2022/06/13 09:48:16;;;;;;;;;9.33;8.67;;;;;22.32;51.72;98340.28;4999597;27;102435;-59
2022/06/13 09:50:48;;;;;;;;;9.33;8.67;;;;;22.34;51.73;98337.22;4983145;27;104097;-58
2022/06/13 09:53:37;;;;;;;;;8.00;8.00;;;;;22.34;51.37;98348.22;4998084;27;102563;-58
2022/06/13 09:56:58;;;;;;;;;8.00;8.00;;;;;22.35;51.44;98330.59;4993906;28;102142;-58
2022/06/13 09:59:44;;;;;;;;;9.00;8.67;;;;;22.37;51.40;98326.47;4941276;28;102280;-58
2022/06/13 10:02:29;;;;;;;;;7.67;7.33;;;;;22.37;51.48;98325.66;4999207;28;104208;-58
2022/06/13 10:05:21;;;;;;;;;7.33;7.33;;;;;22.38;51.35;98333.59;4983768;28;102208;-58
2022/06/13 10:08:14;;;;;;;;;7.67;6.67;;;;;22.38;51.15;98341.09;5002339;28;102239;-58
2022/06/13 10:11:23;;;;;;;;;9.33;8.33;;;;;22.39;51.06;98348.22;4992931;27;102620;-58
2022/06/13 10:14:11;;;;;;;;;8.33;8.33;;;;;22.38;51.40;98341.88;5003791;27;109048;-58
2022/06/13 10:17:08;;;;;;;;;7.33;7.00;;;;;22.37;51.38;98334.75;4982521;27;103671;-58
2022/06/13 10:19:54;;;;;;;;;6.67;6.67;;;;;22.38;51.64;98338.31;4986721;27;102237;-58
2022/06/13 10:22:42;;;;;;;;;8.67;8.00;;;;;22.38;51.91;98332.81;4999014;28;102606;-58
2022/06/13 10:25:25;;;;;;;;;8.00;8.00;;;;;22.39;51.89;98327.00;4991134;27;109745;-58
2022/06/13 10:28:37;;;;;;;;;7.00;7.00;;;;;22.39;51.91;98318.72;4989617;28;105066;-58
2022/06/13 10:31:25;;;;;;;;;6.67;6.67;;;;;22.40;51.76;98316.81;4926861;28;102423;-58
2022/06/13 10:33:55;;;;;;;;;6.67;6.00;;;;;22.41;51.62;98327.56;4995960;28;102682;-58
2022/06/13 10:36:38;;;;;;;;;7.00;7.00;;;;;22.41;51.55;98326.72;4988636;27;109042;-58
2022/06/13 10:39:09;;;;;;;;;6.67;6.67;;;;;22.41;51.54;98321.22;4994085;27;102315;-58
2022/06/13 10:41:39;;;;;;;;;8.00;8.00;;;;;22.40;51.44;98314.06;4993519;27;102428;-58
2022/06/13 10:44:07;;;;;;;;;6.00;5.67;;;;;22.41;51.67;98319.28;4980349;28;102293;-58
2022/06/13 10:46:35;;;;;;;;;7.33;6.67;;;;;22.41;51.45;98327.56;4979010;27;104141;-58
2022/06/13 10:49:17;;;;;;;;;7.00;7.00;;;;;22.42;51.58;98322.88;4997441;27;102234;-58
2022/06/13 10:51:45;;;;;;;;;7.67;7.67;;;;;22.42;51.51;98320.13;4993566;28;102440;-59
2022/06/13 10:54:34;;;;;;;;;7.67;7.67;;;;;22.43;51.65;98313.47;4997415;28;102491;-58
2022/06/13 10:57:09;;;;;;;;;7.67;6.67;;;;;22.42;51.75;98311.84;4980430;27;108812;-58
2022/06/13 10:59:37;;;;;;;;;9.33;7.00;;;;;22.43;51.49;98318.97;5007640;28;102418;-58
2022/06/13 11:02:20;;;;;;;;;7.67;7.33;;;;;22.43;51.68;98307.97;4966811;28;102356;-58
2022/06/13 11:05:05;;;;;;;;;6.67;6.00;;;;;22.46;51.60;98312.94;5006357;28;102354;-58
2022/06/13 11:07:33;;;;;;;;;6.00;6.00;;;;;22.45;51.67;98301.06;4995974;27;108902;-58
2022/06/13 11:10:01;;;;;;;;;8.67;8.67;;;;;22.47;51.44;98306.31;4999939;27;103035;-58
2022/06/13 11:12:30;;;;;;;;;5.33;4.67;;;;;22.46;51.21;98299.97;4996410;28;102304;-58
2022/06/13 11:23:56;;;;;;;;;6.67;5.67;;;;;22.49;51.29;98302.16;4990414;27;102423;-58
2022/06/13 11:29:15;;;;;;;;;5.67;5.67;;;;;22.50;51.34;98291.94;4989817;28;109172;-58
2022/06/13 11:31:56;;;;;;;;;7.67;6.00;;;;;22.52;51.18;98289.72;5004317;27;102079;-58
2022/06/13 11:34:39;;;;;;;;;7.00;6.67;;;;;22.52;51.25;98278.69;4989824;28;102263;-58
2022/06/13 11:37:12;;;;;;;;;6.67;6.33;;;;;22.54;51.13;98284.75;4980208;28;102221;-58
2022/06/13 11:39:42;;;;;;;;;7.00;7.00;;;;;22.54;51.22;98284.75;4998637;27;104005;-58
2022/06/13 11:42:26;;;;;;;;;6.33;6.00;;;;;22.55;51.09;98287.25;4987724;27;102542;-58
2022/06/13 11:45:15;;;;;;;;;7.00;6.67;;;;;22.55;51.13;98297.44;4993399;27;102173;-58
2022/06/13 11:47:45;;;;;;;;;6.33;6.33;;;;;22.56;51.08;98290.81;4998022;27;102327;-58
2022/06/13 11:50:16;;;;;;;;;5.33;5.33;;;;;22.57;51.31;98289.69;4992326;28;104093;-58
2022/06/13 11:55:30;;;;;;;;;7.00;7.00;;;;;22.57;51.42;98286.94;4993029;27;102289;-58
2022/06/13 11:58:03;;;;;;;;;8.00;7.67;;;;;22.58;51.33;98280.31;4999459;27;102418;-58
2022/06/13 12:00:37;;;;;;;;;8.67;8.00;;;;;22.58;51.57;98272.88;4985472;28;108549;-58
2022/06/13 12:03:19;;;;;;;;;6.00;6.00;;;;;22.58;51.38;98283.06;4995757;27;102031;-58
2022/06/13 12:05:57;;;;;;;;;6.00;6.00;;;;;22.59;51.35;98291.06;4999908;28;102118;-58
2022/06/13 12:08:26;;;;;;;;;6.00;5.00;;;;;22.59;51.27;98296.56;4983192;27;102403;-58
2022/06/13 12:10:57;;;;;;;;;8.33;7.33;;;;;22.62;51.17;98300.69;4988038;28;108803;-58
2022/06/13 12:13:26;;;;;;;;;7.33;7.00;;;;;22.63;51.17;98296.81;4995948;27;102115;-58
2022/06/13 12:16:00;;;;;;;;;1.33;1.00;;;;;22.64;51.25;98309.50;4990263;28;102329;-58
2022/06/13 12:19:28;;;;;;;;;5.67;5.67;;;;;22.64;51.36;98298.47;4992964;28;102664;-58